3DA weather

Dalton Airport
Flushing, Michigan, United States

Public forecast

Using degrees Fahrenheit for public forecast. Weather courtesy of forecast.io.

METAR (pilot weather report)

Closest report is Bishop International Airport, 5.9 nm (10.9 km) SSE. Retrieved 2019/04/23 20:53 UTC (43 minutes ago):

KFNT 232053Z 29017G25KT 10SM OVC022 11/05 A2990 RMK AO2 PK WND 29027/1956 SLP125 T01110050 51014

TAF (pilot weather forecast)

Closest forecast is Bishop International Airport, 5.9 nm (10.9 km) SSE. Retrieved 2019/04/23 18:30 UTC (3 hours ago):

TAF KFNT 231728Z 2318/2418 28017G26KT P6SM BKN015 FM232000 29015G25KT P6SM BKN020 FM232200 30013G20KT P6SM SCT025 FM240100 31007KT P6SM SCT150 FM241200 32004KT P6SM SKC